sensor_id;sensor_type;location;lat;lon;timestamp;temperature;humidity
24146;DHT22;12308;50.948;4.706;2023-01-24T00:00:06;4.50;99.90
24146;DHT22;12308;50.948;4.706;2023-01-24T00:02:32;4.50;99.90
24146;DHT22;12308;50.948;4.706;2023-01-24T00:04:58;4.50;99.90
24146;DHT22;12308;50.948;4.706;2023-01-24T00:07:24;4.50;99.90
24146;DHT22;12308;50.948;4.706;2023-01-24T00:09:49;4.50;99.90
24146;DHT22;12308;50.948;4.706;2023-01-24T00:12:15;4.70;99.90
24146;DHT22;12308;50.948;4.706;2023-01-24T00:14:41;4.70;99.90
24146;DHT22;12308;50.948;4.706;2023-01-24T00:17:06;4.70;99.90
24146;DHT22;12308;50.948;4.706;2023-01-24T00:19:35;4.40;99.90
24146;DHT22;12308;50.948;4.706;2023-01-24T00:22:04;4.40;99.90
24146;DHT22;12308;50.948;4.706;2023-01-24T00:24:29;4.50;99.90
24146;DHT22;12308;50.948;4.706;2023-01-24T00:26:58;4.50;99.90
24146;DHT22;12308;50.948;4.706;2023-01-24T00:29:24;4.40;99.90
24146;DHT22;12308;50.948;4.706;2023-01-24T00:31:49;4.30;99.90
24146;DHT22;12308;50.948;4.706;2023-01-24T00:34:15;4.30;99.90
24146;DHT22;12308;50.948;4.706;2023-01-24T00:36:41;4.30;99.90
24146;DHT22;12308;50.948;4.706;2023-01-24T00:39:06;4.30;99.90
24146;DHT22;12308;50.948;4.706;2023-01-24T00:41:32;4.40;99.90
24146;DHT22;12308;50.948;4.706;2023-01-24T00:43:58;4.50;99.90
24146;DHT22;12308;50.948;4.706;2023-01-24T00:46:23;4.50;99.90
24146;DHT22;12308;50.948;4.706;2023-01-24T00:48:49;4.50;99.90
24146;DHT22;12308;50.948;4.706;2023-01-24T00:51:14;4.60;99.90
24146;DHT22;12308;50.948;4.706;2023-01-24T00:53:40;4.60;99.90
24146;DHT22;12308;50.948;4.706;2023-01-24T00:56:06;4.60;99.90
24146;DHT22;12308;50.948;4.706;2023-01-24T00:58:33;4.60;99.90
24146;DHT22;12308;50.948;4.706;2023-01-24T01:00:58;4.60;99.90
24146;DHT22;12308;50.948;4.706;2023-01-24T01:03:26;4.50;99.90
24146;DHT22;12308;50.948;4.706;2023-01-24T01:06:03;4.40;99.90
24146;DHT22;12308;50.948;4.706;2023-01-24T01:08:29;4.30;99.90
24146;DHT22;12308;50.948;4.706;2023-01-24T01:10:55;4.30;99.90
24146;DHT22;12308;50.948;4.706;2023-01-24T01:13:21;4.30;99.90
24146;DHT22;12308;50.948;4.706;2023-01-24T01:15:47;4.30;99.90
24146;DHT22;12308;50.948;4.706;2023-01-24T01:18:12;4.30;99.90
24146;DHT22;12308;50.948;4.706;2023-01-24T01:20:38;4.40;99.90
24146;DHT22;12308;50.948;4.706;2023-01-24T01:23:04;4.40;99.90
24146;DHT22;12308;50.948;4.706;2023-01-24T01:25:30;4.30;99.90
24146;DHT22;12308;50.948;4.706;2023-01-24T01:27:56;4.30;99.90
24146;DHT22;12308;50.948;4.706;2023-01-24T01:30:21;4.30;99.90
24146;DHT22;12308;50.948;4.706;2023-01-24T01:32:47;4.30;99.90
24146;DHT22;12308;50.948;4.706;2023-01-24T01:35:13;4.30;99.90
24146;DHT22;12308;50.948;4.706;2023-01-24T01:37:38;4.30;99.90
24146;DHT22;12308;50.948;4.706;2023-01-24T01:40:05;4.30;99.90
24146;DHT22;12308;50.948;4.706;2023-01-24T01:42:53;4.40;99.90
24146;DHT22;12308;50.948;4.706;2023-01-24T01:51:12;4.40;99.90
24146;DHT22;12308;50.948;4.706;2023-01-24T01:53:43;4.20;99.90
24146;DHT22;12308;50.948;4.706;2023-01-24T01:56:14;4.20;99.90
24146;DHT22;12308;50.948;4.706;2023-01-24T01:58:40;4.30;99.90
24146;DHT22;12308;50.948;4.706;2023-01-24T02:01:06;4.30;99.90
24146;DHT22;12308;50.948;4.706;2023-01-24T02:03:36;4.30;99.90
24146;DHT22;12308;50.948;4.706;2023-01-24T02:06:13;4.30;99.90
24146;DHT22;12308;50.948;4.706;2023-01-24T02:08:42;4.20;99.90
24146;DHT22;12308;50.948;4.706;2023-01-24T02:11:09;4.20;99.90
24146;DHT22;12308;50.948;4.706;2023-01-24T02:13:55;4.20;99.90
24146;DHT22;12308;50.948;4.706;2023-01-24T02:16:41;4.20;99.90
24146;DHT22;12308;50.948;4.706;2023-01-24T02:19:12;4.30;99.90
24146;DHT22;12308;50.948;4.706;2023-01-24T02:21:41;4.50;99.90
24146;DHT22;12308;50.948;4.706;2023-01-24T02:24:36;4.60;99.90
24146;DHT22;12308;50.948;4.706;2023-01-24T02:27:03;4.40;99.90
24146;DHT22;12308;50.948;4.706;2023-01-24T02:29:29;4.30;99.90
24146;DHT22;12308;50.948;4.706;2023-01-24T02:32:05;4.30;99.90
24146;DHT22;12308;50.948;4.706;2023-01-24T02:34:31;4.40;99.90
24146;DHT22;12308;50.948;4.706;2023-01-24T02:36:59;4.40;99.90
24146;DHT22;12308;50.948;4.706;2023-01-24T02:42:13;4.40;99.90
24146;DHT22;12308;50.948;4.706;2023-01-24T02:47:17;4.40;99.90
24146;DHT22;12308;50.948;4.706;2023-01-24T02:49:43;4.40;99.90
24146;DHT22;12308;50.948;4.706;2023-01-24T02:52:09;4.40;99.90
24146;DHT22;12308;50.948;4.706;2023-01-24T02:54:53;4.40;99.90
24146;DHT22;12308;50.948;4.706;2023-01-24T02:57:19;4.40;99.90
24146;DHT22;12308;50.948;4.706;2023-01-24T03:00:05;4.30;99.90
24146;DHT22;12308;50.948;4.706;2023-01-24T03:02:32;4.40;99.90
24146;DHT22;12308;50.948;4.706;2023-01-24T03:04:57;4.30;99.90
24146;DHT22;12308;50.948;4.706;2023-01-24T03:07:23;4.30;99.90
24146;DHT22;12308;50.948;4.706;2023-01-24T03:09:49;4.30;99.90
24146;DHT22;12308;50.948;4.706;2023-01-24T03:12:14;4.20;99.90
24146;DHT22;12308;50.948;4.706;2023-01-24T03:14:59;4.20;99.90
24146;DHT22;12308;50.948;4.706;2023-01-24T03:17:43;4.20;99.90
24146;DHT22;12308;50.948;4.706;2023-01-24T03:20:28;4.20;99.90
24146;DHT22;12308;50.948;4.706;2023-01-24T03:23:12;4.20;99.90
24146;DHT22;12308;50.948;4.706;2023-01-24T03:25:57;4.40;99.90
24146;DHT22;12308;50.948;4.706;2023-01-24T03:28:42;4.40;99.90
24146;DHT22;12308;50.948;4.706;2023-01-24T03:31:26;4.40;99.90
24146;DHT22;12308;50.948;4.706;2023-01-24T03:34:11;4.30;99.90
24146;DHT22;12308;50.948;4.706;2023-01-24T03:36:57;4.30;99.90
24146;DHT22;12308;50.948;4.706;2023-01-24T03:39:23;4.20;99.90
24146;DHT22;12308;50.948;4.706;2023-01-24T03:42:07;4.20;99.90
24146;DHT22;12308;50.948;4.706;2023-01-24T03:44:32;4.20;99.90
24146;DHT22;12308;50.948;4.706;2023-01-24T03:46:58;4.40;99.90
24146;DHT22;12308;50.948;4.706;2023-01-24T03:49:24;4.40;99.90
24146;DHT22;12308;50.948;4.706;2023-01-24T03:52:08;4.40;99.90
24146;DHT22;12308;50.948;4.706;2023-01-24T03:54:53;4.40;99.90
24146;DHT22;12308;50.948;4.706;2023-01-24T03:57:19;4.30;99.90
24146;DHT22;12308;50.948;4.706;2023-01-24T03:59:44;4.30;99.90
24146;DHT22;12308;50.948;4.706;2023-01-24T04:02:10;4.30;99.90
24146;DHT22;12308;50.948;4.706;2023-01-24T04:04:36;4.20;99.90
24146;DHT22;12308;50.948;4.706;2023-01-24T04:07:20;4.30;99.90
24146;DHT22;12308;50.948;4.706;2023-01-24T04:09:46;4.30;99.90
24146;DHT22;12308;50.948;4.706;2023-01-24T04:12:11;4.20;99.90
24146;DHT22;12308;50.948;4.706;2023-01-24T04:14:37;4.10;99.90
24146;DHT22;12308;50.948;4.706;2023-01-24T04:17:03;4.20;99.90
24146;DHT22;12308;50.948;4.706;2023-01-24T04:19:28;4.40;99.90
24146;DHT22;12308;50.948;4.706;2023-01-24T04:21:54;4.40;99.90
24146;DHT22;12308;50.948;4.706;2023-01-24T04:24:22;4.40;99.90
24146;DHT22;12308;50.948;4.706;2023-01-24T04:26:48;4.40;99.90
24146;DHT22;12308;50.948;4.706;2023-01-24T04:29:14;4.40;99.90
24146;DHT22;12308;50.948;4.706;2023-01-24T04:31:39;4.40;99.90
24146;DHT22;12308;50.948;4.706;2023-01-24T04:34:05;4.30;99.90
24146;DHT22;12308;50.948;4.706;2023-01-24T04:36:31;4.40;99.90
24146;DHT22;12308;50.948;4.706;2023-01-24T04:38:56;4.30;99.90
24146;DHT22;12308;50.948;4.706;2023-01-24T04:41:22;4.30;99.90
24146;DHT22;12308;50.948;4.706;2023-01-24T04:43:48;4.30;99.90
24146;DHT22;12308;50.948;4.706;2023-01-24T04:46:13;4.20;99.90
24146;DHT22;12308;50.948;4.706;2023-01-24T04:48:39;4.20;99.90
24146;DHT22;12308;50.948;4.706;2023-01-24T04:51:05;4.30;99.90
24146;DHT22;12308;50.948;4.706;2023-01-24T04:53:30;4.50;99.90
24146;DHT22;12308;50.948;4.706;2023-01-24T04:56:00;4.50;99.90
24146;DHT22;12308;50.948;4.706;2023-01-24T04:58:26;4.50;99.90
24146;DHT22;12308;50.948;4.706;2023-01-24T05:00:53;4.40;99.90
24146;DHT22;12308;50.948;4.706;2023-01-24T05:03:18;4.40;99.90
24146;DHT22;12308;50.948;4.706;2023-01-24T05:05:48;4.50;99.90
24146;DHT22;12308;50.948;4.706;2023-01-24T05:08:13;4.50;99.90
24146;DHT22;12308;50.948;4.706;2023-01-24T05:10:39;4.40;99.90
24146;DHT22;12308;50.948;4.706;2023-01-24T05:13:04;4.50;99.90
24146;DHT22;12308;50.948;4.706;2023-01-24T05:15:30;4.40;99.90
24146;DHT22;12308;50.948;4.706;2023-01-24T05:17:56;4.50;99.90
24146;DHT22;12308;50.948;4.706;2023-01-24T05:20:22;4.40;99.90
24146;DHT22;12308;50.948;4.706;2023-01-24T05:22:47;4.40;99.90
24146;DHT22;12308;50.948;4.706;2023-01-24T05:25:17;4.30;99.90
24146;DHT22;12308;50.948;4.706;2023-01-24T05:27:44;4.40;99.90
24146;DHT22;12308;50.948;4.706;2023-01-24T05:30:10;4.50;99.90
24146;DHT22;12308;50.948;4.706;2023-01-24T05:32:36;4.60;99.90
24146;DHT22;12308;50.948;4.706;2023-01-24T05:35:03;4.70;99.90
24146;DHT22;12308;50.948;4.706;2023-01-24T05:37:28;4.50;99.90
24146;DHT22;12308;50.948;4.706;2023-01-24T05:39:54;4.40;99.90
24146;DHT22;12308;50.948;4.706;2023-01-24T05:42:20;4.40;99.90
24146;DHT22;12308;50.948;4.706;2023-01-24T05:44:45;4.40;99.90
24146;DHT22;12308;50.948;4.706;2023-01-24T05:47:11;4.40;99.90
24146;DHT22;12308;50.948;4.706;2023-01-24T05:49:37;4.40;99.90
24146;DHT22;12308;50.948;4.706;2023-01-24T05:52:02;4.40;99.90
24146;DHT22;12308;50.948;4.706;2023-01-24T05:54:28;4.30;99.90
24146;DHT22;12308;50.948;4.706;2023-01-24T05:56:54;4.20;99.90
24146;DHT22;12308;50.948;4.706;2023-01-24T05:59:20;4.20;99.90
24146;DHT22;12308;50.948;4.706;2023-01-24T06:01:46;4.00;99.90
24146;DHT22;12308;50.948;4.706;2023-01-24T06:04:11;4.10;99.90
24146;DHT22;12308;50.948;4.706;2023-01-24T06:06:37;4.30;99.90
24146;DHT22;12308;50.948;4.706;2023-01-24T06:09:03;4.30;99.90
24146;DHT22;12308;50.948;4.706;2023-01-24T06:11:29;4.20;99.90
24146;DHT22;12308;50.948;4.706;2023-01-24T06:13:57;4.10;99.90
24146;DHT22;12308;50.948;4.706;2023-01-24T06:16:24;4.10;99.90
24146;DHT22;12308;50.948;4.706;2023-01-24T06:18:51;4.10;99.90
24146;DHT22;12308;50.948;4.706;2023-01-24T06:24:04;4.00;99.90
24146;DHT22;12308;50.948;4.706;2023-01-24T06:26:31;4.00;99.90
24146;DHT22;12308;50.948;4.706;2023-01-24T06:28:57;4.10;99.90
24146;DHT22;12308;50.948;4.706;2023-01-24T06:31:29;4.10;99.90
24146;DHT22;12308;50.948;4.706;2023-01-24T06:37:10;3.90;99.90
24146;DHT22;12308;50.948;4.706;2023-01-24T06:39:39;4.00;99.90
24146;DHT22;12308;50.948;4.706;2023-01-24T06:42:05;4.00;99.90
24146;DHT22;12308;50.948;4.706;2023-01-24T06:44:31;4.00;99.90
24146;DHT22;12308;50.948;4.706;2023-01-24T06:46:57;4.10;99.90
24146;DHT22;12308;50.948;4.706;2023-01-24T06:49:23;4.00;99.90
24146;DHT22;12308;50.948;4.706;2023-01-24T06:51:50;4.00;99.90
24146;DHT22;12308;50.948;4.706;2023-01-24T06:54:16;4.00;99.90
24146;DHT22;12308;50.948;4.706;2023-01-24T06:56:42;4.00;99.90
24146;DHT22;12308;50.948;4.706;2023-01-24T06:59:08;4.10;99.90
24146;DHT22;12308;50.948;4.706;2023-01-24T07:01:33;4.00;99.90
24146;DHT22;12308;50.948;4.706;2023-01-24T07:03:59;3.90;99.90
24146;DHT22;12308;50.948;4.706;2023-01-24T07:06:25;3.80;99.90
24146;DHT22;12308;50.948;4.706;2023-01-24T07:08:52;3.90;99.90
24146;DHT22;12308;50.948;4.706;2023-01-24T07:11:18;3.90;99.90
24146;DHT22;12308;50.948;4.706;2023-01-24T07:13:43;3.80;99.90
24146;DHT22;12308;50.948;4.706;2023-01-24T07:16:09;3.90;99.90
24146;DHT22;12308;50.948;4.706;2023-01-24T07:18:35;3.90;99.90
24146;DHT22;12308;50.948;4.706;2023-01-24T07:21:05;4.00;99.90
24146;DHT22;12308;50.948;4.706;2023-01-24T07:23:30;4.10;99.90
24146;DHT22;12308;50.948;4.706;2023-01-24T07:25:58;4.10;99.90
24146;DHT22;12308;50.948;4.706;2023-01-24T07:28:24;4.20;99.90
24146;DHT22;12308;50.948;4.706;2023-01-24T07:30:52;4.20;99.90
24146;DHT22;12308;50.948;4.706;2023-01-24T07:33:18;4.10;99.90
24146;DHT22;12308;50.948;4.706;2023-01-24T07:35:44;4.10;99.90
24146;DHT22;12308;50.948;4.706;2023-01-24T07:38:10;4.10;99.90
24146;DHT22;12308;50.948;4.706;2023-01-24T07:40:37;4.00;99.90
24146;DHT22;12308;50.948;4.706;2023-01-24T07:43:04;4.20;99.90
24146;DHT22;12308;50.948;4.706;2023-01-24T07:45:30;4.20;99.90
24146;DHT22;12308;50.948;4.706;2023-01-24T07:47:59;4.10;99.90
24146;DHT22;12308;50.948;4.706;2023-01-24T07:50:25;4.10;99.90
24146;DHT22;12308;50.948;4.706;2023-01-24T07:52:55;4.00;99.90
24146;DHT22;12308;50.948;4.706;2023-01-24T07:55:21;3.90;99.90
24146;DHT22;12308;50.948;4.706;2023-01-24T07:57:47;4.10;99.90
24146;DHT22;12308;50.948;4.706;2023-01-24T08:00:14;4.00;99.90
24146;DHT22;12308;50.948;4.706;2023-01-24T08:02:40;3.90;99.90
24146;DHT22;12308;50.948;4.706;2023-01-24T08:05:06;3.90;99.90
24146;DHT22;12308;50.948;4.706;2023-01-24T08:07:32;3.80;99.90
24146;DHT22;12308;50.948;4.706;2023-01-24T08:09:57;4.00;99.90
24146;DHT22;12308;50.948;4.706;2023-01-24T08:12:23;3.90;99.90
24146;DHT22;12308;50.948;4.706;2023-01-24T08:14:49;3.80;99.90
24146;DHT22;12308;50.948;4.706;2023-01-24T08:17:15;3.80;99.90
24146;DHT22;12308;50.948;4.706;2023-01-24T08:19:41;3.90;99.90
24146;DHT22;12308;50.948;4.706;2023-01-24T08:22:07;4.20;99.90
24146;DHT22;12308;50.948;4.706;2023-01-24T08:24:32;4.20;99.90
24146;DHT22;12308;50.948;4.706;2023-01-24T08:26:59;4.20;99.90
24146;DHT22;12308;50.948;4.706;2023-01-24T08:29:25;4.20;99.90
24146;DHT22;12308;50.948;4.706;2023-01-24T08:31:51;4.20;99.90
24146;DHT22;12308;50.948;4.706;2023-01-24T08:34:17;4.30;99.90
24146;DHT22;12308;50.948;4.706;2023-01-24T08:36:42;4.40;99.90
24146;DHT22;12308;50.948;4.706;2023-01-24T08:39:08;4.40;99.90
24146;DHT22;12308;50.948;4.706;2023-01-24T08:41:34;4.20;99.90
24146;DHT22;12308;50.948;4.706;2023-01-24T08:44:00;4.10;99.90
24146;DHT22;12308;50.948;4.706;2023-01-24T08:46:28;4.00;99.90
24146;DHT22;12308;50.948;4.706;2023-01-24T08:48:54;3.90;99.90
24146;DHT22;12308;50.948;4.706;2023-01-24T08:51:19;3.80;99.90
24146;DHT22;12308;50.948;4.706;2023-01-24T08:53:45;3.80;99.90
24146;DHT22;12308;50.948;4.706;2023-01-24T08:56:11;3.80;99.90
24146;DHT22;12308;50.948;4.706;2023-01-24T08:58:37;3.80;99.90
24146;DHT22;12308;50.948;4.706;2023-01-24T09:01:09;3.80;99.90
24146;DHT22;12308;50.948;4.706;2023-01-24T09:03:36;3.90;99.90
24146;DHT22;12308;50.948;4.706;2023-01-24T09:06:02;4.00;99.90
24146;DHT22;12308;50.948;4.706;2023-01-24T09:08:28;4.00;99.90
24146;DHT22;12308;50.948;4.706;2023-01-24T09:10:57;4.00;99.90
24146;DHT22;12308;50.948;4.706;2023-01-24T09:13:23;3.90;99.90
24146;DHT22;12308;50.948;4.706;2023-01-24T09:15:48;4.00;99.90
24146;DHT22;12308;50.948;4.706;2023-01-24T09:18:14;3.90;99.90
24146;DHT22;12308;50.948;4.706;2023-01-24T09:20:41;3.90;99.90
24146;DHT22;12308;50.948;4.706;2023-01-24T09:23:11;3.90;99.90
24146;DHT22;12308;50.948;4.706;2023-01-24T09:25:38;4.00;99.90
24146;DHT22;12308;50.948;4.706;2023-01-24T09:28:04;3.90;99.90
24146;DHT22;12308;50.948;4.706;2023-01-24T09:30:30;4.00;99.90
24146;DHT22;12308;50.948;4.706;2023-01-24T09:32:55;4.20;99.90
24146;DHT22;12308;50.948;4.706;2023-01-24T09:35:21;4.30;99.90
24146;DHT22;12308;50.948;4.706;2023-01-24T09:37:47;4.50;99.90
24146;DHT22;12308;50.948;4.706;2023-01-24T09:40:27;4.50;99.90
24146;DHT22;12308;50.948;4.706;2023-01-24T09:45:56;4.60;99.90
24146;DHT22;12308;50.948;4.706;2023-01-24T09:48:24;4.70;99.90
24146;DHT22;12308;50.948;4.706;2023-01-24T09:50:54;4.70;99.90
24146;DHT22;12308;50.948;4.706;2023-01-24T09:53:30;4.50;99.90
24146;DHT22;12308;50.948;4.706;2023-01-24T09:55:58;4.30;99.90
24146;DHT22;12308;50.948;4.706;2023-01-24T10:00:54;4.30;99.90
24146;DHT22;12308;50.948;4.706;2023-01-24T10:03:22;4.30;99.90
24146;DHT22;12308;50.948;4.706;2023-01-24T10:05:53;4.40;99.90
24146;DHT22;12308;50.948;4.706;2023-01-24T10:08:39;4.60;99.90
24146;DHT22;12308;50.948;4.706;2023-01-24T10:11:32;4.60;99.90
24146;DHT22;12308;50.948;4.706;2023-01-24T10:14:32;4.50;99.90
24146;DHT22;12308;50.948;4.706;2023-01-24T10:22:45;4.60;99.90
24146;DHT22;12308;50.948;4.706;2023-01-24T10:25:24;4.60;99.90
24146;DHT22;12308;50.948;4.706;2023-01-24T10:27:53;4.50;99.90
24146;DHT22;12308;50.948;4.706;2023-01-24T10:30:28;4.60;99.90
24146;DHT22;12308;50.948;4.706;2023-01-24T10:33:01;4.70;99.90
24146;DHT22;12308;50.948;4.706;2023-01-24T10:35:55;4.80;99.90
24146;DHT22;12308;50.948;4.706;2023-01-24T10:38:21;4.80;99.90
24146;DHT22;12308;50.948;4.706;2023-01-24T10:40:55;4.70;99.90
24146;DHT22;12308;50.948;4.706;2023-01-24T10:43:29;4.80;99.90
24146;DHT22;12308;50.948;4.706;2023-01-24T10:48:53;4.90;99.90
24146;DHT22;12308;50.948;4.706;2023-01-24T10:51:24;4.80;99.90
24146;DHT22;12308;50.948;4.706;2023-01-24T10:53:50;4.80;99.90
24146;DHT22;12308;50.948;4.706;2023-01-24T10:56:19;5.10;99.90
24146;DHT22;12308;50.948;4.706;2023-01-24T10:59:05;5.30;99.90
24146;DHT22;12308;50.948;4.706;2023-01-24T11:01:43;5.30;99.90
24146;DHT22;12308;50.948;4.706;2023-01-24T11:04:26;5.00;99.90
24146;DHT22;12308;50.948;4.706;2023-01-24T11:06:52;4.90;99.90
24146;DHT22;12308;50.948;4.706;2023-01-24T11:09:20;5.10;99.90
24146;DHT22;12308;50.948;4.706;2023-01-24T11:11:50;5.30;99.90
24146;DHT22;12308;50.948;4.706;2023-01-24T11:14:30;5.30;99.90
24146;DHT22;12308;50.948;4.706;2023-01-24T11:16:58;5.20;99.90
24146;DHT22;12308;50.948;4.706;2023-01-24T11:19:32;5.20;99.90
24146;DHT22;12308;50.948;4.706;2023-01-24T11:22:25;5.20;99.90
24146;DHT22;12308;50.948;4.706;2023-01-24T11:24:49;5.10;99.90
24146;DHT22;12308;50.948;4.706;2023-01-24T11:27:20;5.00;99.90
24146;DHT22;12308;50.948;4.706;2023-01-24T11:30:05;5.00;99.90
24146;DHT22;12308;50.948;4.706;2023-01-24T11:32:57;5.00;99.90
24146;DHT22;12308;50.948;4.706;2023-01-24T11:35:23;4.90;99.90
24146;DHT22;12308;50.948;4.706;2023-01-24T11:43:25;4.90;99.90
24146;DHT22;12308;50.948;4.706;2023-01-24T11:48:59;5.00;99.90
24146;DHT22;12308;50.948;4.706;2023-01-24T11:57:47;5.20;99.90
24146;DHT22;12308;50.948;4.706;2023-01-24T12:06:01;5.50;99.90
24146;DHT22;12308;50.948;4.706;2023-01-24T12:17:01;5.00;99.90
24146;DHT22;12308;50.948;4.706;2023-01-24T12:19:57;4.70;99.90
24146;DHT22;12308;50.948;4.706;2023-01-24T12:22:28;4.60;99.90
24146;DHT22;12308;50.948;4.706;2023-01-24T12:25:03;4.60;99.90
24146;DHT22;12308;50.948;4.706;2023-01-24T12:27:34;4.60;99.90
24146;DHT22;12308;50.948;4.706;2023-01-24T12:32:42;4.60;99.90
24146;DHT22;12308;50.948;4.706;2023-01-24T12:38:05;4.60;99.90
24146;DHT22;12308;50.948;4.706;2023-01-24T12:41:10;4.70;99.90
24146;DHT22;12308;50.948;4.706;2023-01-24T12:46:37;5.00;99.90
24146;DHT22;12308;50.948;4.706;2023-01-24T12:52:02;5.10;99.90
24146;DHT22;12308;50.948;4.706;2023-01-24T12:54:48;5.00;99.90
24146;DHT22;12308;50.948;4.706;2023-01-24T13:00:17;5.10;99.90
24146;DHT22;12308;50.948;4.706;2023-01-24T13:05:50;5.20;99.90
24146;DHT22;12308;50.948;4.706;2023-01-24T13:11:19;5.30;99.90
24146;DHT22;12308;50.948;4.706;2023-01-24T13:14:10;5.10;99.90
24146;DHT22;12308;50.948;4.706;2023-01-24T13:32:57;5.00;99.90
24146;DHT22;12308;50.948;4.706;2023-01-24T13:35:26;5.00;99.90
24146;DHT22;12308;50.948;4.706;2023-01-24T13:38:25;5.10;99.90
24146;DHT22;12308;50.948;4.706;2023-01-24T13:41:01;5.20;99.90
24146;DHT22;12308;50.948;4.706;2023-01-24T13:46:03;5.30;99.90
24146;DHT22;12308;50.948;4.706;2023-01-24T13:53:59;5.20;99.90
24146;DHT22;12308;50.948;4.706;2023-01-24T13:56:25;5.10;99.90
24146;DHT22;12308;50.948;4.706;2023-01-24T13:58:52;5.00;99.90
24146;DHT22;12308;50.948;4.706;2023-01-24T14:01:19;5.10;99.90
24146;DHT22;12308;50.948;4.706;2023-01-24T14:04:12;5.30;99.90
24146;DHT22;12308;50.948;4.706;2023-01-24T14:06:41;5.20;99.90
24146;DHT22;12308;50.948;4.706;2023-01-24T14:09:21;5.00;99.90
24146;DHT22;12308;50.948;4.706;2023-01-24T14:12:14;5.10;99.90
24146;DHT22;12308;50.948;4.706;2023-01-24T14:15:05;5.20;99.90
24146;DHT22;12308;50.948;4.706;2023-01-24T14:17:49;5.20;99.90
24146;DHT22;12308;50.948;4.706;2023-01-24T14:23:10;5.50;99.90
24146;DHT22;12308;50.948;4.706;2023-01-24T14:25:41;5.50;99.90
24146;DHT22;12308;50.948;4.706;2023-01-24T14:31:00;5.30;99.90
24146;DHT22;12308;50.948;4.706;2023-01-24T14:33:36;5.40;99.90
24146;DHT22;12308;50.948;4.706;2023-01-24T14:36:57;5.20;99.90
24146;DHT22;12308;50.948;4.706;2023-01-24T14:39:20;5.20;99.90
24146;DHT22;12308;50.948;4.706;2023-01-24T14:41:57;5.30;99.90
24146;DHT22;12308;50.948;4.706;2023-01-24T14:46:56;5.20;99.90
24146;DHT22;12308;50.948;4.706;2023-01-24T14:49:32;5.20;99.90
24146;DHT22;12308;50.948;4.706;2023-01-24T14:51:59;5.10;99.90
24146;DHT22;12308;50.948;4.706;2023-01-24T14:54:26;5.30;99.90
24146;DHT22;12308;50.948;4.706;2023-01-24T14:56:52;5.40;99.90
24146;DHT22;12308;50.948;4.706;2023-01-24T14:59:21;5.20;99.90
24146;DHT22;12308;50.948;4.706;2023-01-24T15:01:51;5.30;99.90
24146;DHT22;12308;50.948;4.706;2023-01-24T15:04:27;5.30;99.90
24146;DHT22;12308;50.948;4.706;2023-01-24T15:07:04;5.20;99.90
24146;DHT22;12308;50.948;4.706;2023-01-24T15:09:30;5.30;99.90
24146;DHT22;12308;50.948;4.706;2023-01-24T15:11:55;5.30;99.90
24146;DHT22;12308;50.948;4.706;2023-01-24T15:14:21;5.20;99.90
24146;DHT22;12308;50.948;4.706;2023-01-24T15:16:52;5.30;99.90
24146;DHT22;12308;50.948;4.706;2023-01-24T15:19:24;5.20;99.90
24146;DHT22;12308;50.948;4.706;2023-01-24T15:21:51;5.10;99.90
24146;DHT22;12308;50.948;4.706;2023-01-24T15:24:22;5.10;99.90
24146;DHT22;12308;50.948;4.706;2023-01-24T15:26:49;4.80;99.90
24146;DHT22;12308;50.948;4.706;2023-01-24T15:30:06;5.00;99.90
24146;DHT22;12308;50.948;4.706;2023-01-24T15:35:26;5.00;99.90
24146;DHT22;12308;50.948;4.706;2023-01-24T15:40:36;4.80;99.90
24146;DHT22;12308;50.948;4.706;2023-01-24T15:43:02;4.70;99.90
24146;DHT22;12308;50.948;4.706;2023-01-24T15:45:53;4.60;99.90
24146;DHT22;12308;50.948;4.706;2023-01-24T15:49:04;4.70;99.90
24146;DHT22;12308;50.948;4.706;2023-01-24T15:51:33;4.90;99.90
24146;DHT22;12308;50.948;4.706;2023-01-24T15:53:59;4.80;99.90
24146;DHT22;12308;50.948;4.706;2023-01-24T15:56:27;4.70;99.90
24146;DHT22;12308;50.948;4.706;2023-01-24T15:58:53;4.60;99.90
24146;DHT22;12308;50.948;4.706;2023-01-24T16:01:19;4.50;99.90
24146;DHT22;12308;50.948;4.706;2023-01-24T16:03:45;4.40;99.90
24146;DHT22;12308;50.948;4.706;2023-01-24T16:06:10;4.40;99.90
24146;DHT22;12308;50.948;4.706;2023-01-24T16:08:36;4.40;99.90
24146;DHT22;12308;50.948;4.706;2023-01-24T16:11:03;4.30;99.90
24146;DHT22;12308;50.948;4.706;2023-01-24T16:13:38;4.50;99.90
24146;DHT22;12308;50.948;4.706;2023-01-24T16:16:07;4.40;99.90
24146;DHT22;12308;50.948;4.706;2023-01-24T16:18:33;4.50;99.90
24146;DHT22;12308;50.948;4.706;2023-01-24T16:20:59;4.20;99.90
24146;DHT22;12308;50.948;4.706;2023-01-24T16:23:25;4.30;99.90
24146;DHT22;12308;50.948;4.706;2023-01-24T16:25:53;4.40;99.90
24146;DHT22;12308;50.948;4.706;2023-01-24T16:28:21;4.40;99.90
24146;DHT22;12308;50.948;4.706;2023-01-24T16:30:52;4.30;99.90
24146;DHT22;12308;50.948;4.706;2023-01-24T16:33:19;4.10;99.90
24146;DHT22;12308;50.948;4.706;2023-01-24T16:35:46;4.00;99.90
24146;DHT22;12308;50.948;4.706;2023-01-24T16:38:13;4.20;99.90
24146;DHT22;12308;50.948;4.706;2023-01-24T16:40:39;4.30;99.90
24146;DHT22;12308;50.948;4.706;2023-01-24T16:43:07;4.10;99.90
24146;DHT22;12308;50.948;4.706;2023-01-24T16:45:33;4.20;99.90
24146;DHT22;12308;50.948;4.706;2023-01-24T16:47:59;4.40;99.90
24146;DHT22;12308;50.948;4.706;2023-01-24T16:50:25;4.50;99.90
24146;DHT22;12308;50.948;4.706;2023-01-24T16:52:52;4.30;99.90
24146;DHT22;12308;50.948;4.706;2023-01-24T16:55:18;4.00;99.90
24146;DHT22;12308;50.948;4.706;2023-01-24T16:57:44;4.20;99.90
24146;DHT22;12308;50.948;4.706;2023-01-24T17:00:11;4.10;99.90
24146;DHT22;12308;50.948;4.706;2023-01-24T17:02:38;4.00;99.90
24146;DHT22;12308;50.948;4.706;2023-01-24T17:05:04;4.10;99.90
24146;DHT22;12308;50.948;4.706;2023-01-24T17:07:30;4.30;99.90
24146;DHT22;12308;50.948;4.706;2023-01-24T17:09:55;4.40;99.90
24146;DHT22;12308;50.948;4.706;2023-01-24T17:12:21;4.10;99.90
24146;DHT22;12308;50.948;4.706;2023-01-24T17:14:47;4.20;99.90
24146;DHT22;12308;50.948;4.706;2023-01-24T17:17:12;4.10;99.90
24146;DHT22;12308;50.948;4.706;2023-01-24T17:19:38;4.20;99.90
24146;DHT22;12308;50.948;4.706;2023-01-24T17:22:05;4.30;99.90
24146;DHT22;12308;50.948;4.706;2023-01-24T17:24:31;4.30;99.90
24146;DHT22;12308;50.948;4.706;2023-01-24T17:26:56;4.30;99.90
24146;DHT22;12308;50.948;4.706;2023-01-24T17:29:22;4.50;99.90
24146;DHT22;12308;50.948;4.706;2023-01-24T17:31:51;4.50;99.90
24146;DHT22;12308;50.948;4.706;2023-01-24T17:34:16;4.50;99.90
24146;DHT22;12308;50.948;4.706;2023-01-24T17:36:42;4.60;99.90
24146;DHT22;12308;50.948;4.706;2023-01-24T17:39:08;4.70;99.90
24146;DHT22;12308;50.948;4.706;2023-01-24T17:41:33;4.70;99.90
24146;DHT22;12308;50.948;4.706;2023-01-24T17:43:59;4.80;99.90
24146;DHT22;12308;50.948;4.706;2023-01-24T17:46:25;4.80;99.90
24146;DHT22;12308;50.948;4.706;2023-01-24T17:48:50;4.70;99.90
24146;DHT22;12308;50.948;4.706;2023-01-24T17:51:17;4.60;99.90
24146;DHT22;12308;50.948;4.706;2023-01-24T17:53:43;4.80;99.90
24146;DHT22;12308;50.948;4.706;2023-01-24T17:56:10;4.70;99.90
24146;DHT22;12308;50.948;4.706;2023-01-24T17:58:36;4.50;99.90